createdAt,value
2019-02-21T00:00:47.712Z,30.22
2019-02-21T00:01:47.740Z,30.34
2019-02-21T00:03:41.195Z,30.15
2019-02-21T00:04:41.216Z,29.95
2019-02-21T00:06:34.653Z,30.34
2019-02-21T00:07:34.680Z,30.05
2019-02-21T00:09:28.160Z,30.24
2019-02-21T00:10:28.159Z,30.34
2019-02-21T00:12:21.608Z,30.43
2019-02-21T00:13:21.630Z,30.32
2019-02-21T00:15:15.077Z,30.34
2019-02-21T00:16:15.098Z,29.95
2019-02-21T00:18:08.558Z,30.05
2019-02-21T00:19:08.570Z,30.22
2019-02-21T00:21:02.007Z,30.43
2019-02-21T00:22:02.034Z,30.22
2019-02-21T00:23:55.494Z,30.42
2019-02-21T00:24:55.500Z,30.15
2019-02-21T00:26:48.953Z,30.34
2019-02-21T00:27:48.984Z,30.22
2019-02-21T00:29:42.427Z,30.43
2019-02-21T00:30:42.448Z,30.24
2019-02-21T00:32:35.893Z,30.24
2019-02-21T00:33:35.914Z,30.24
2019-02-21T00:35:29.361Z,30.22
2019-02-21T00:36:29.416Z,30.24
2019-02-21T00:38:22.843Z,30.32
2019-02-21T00:39:22.871Z,30.32
2019-02-21T00:41:16.316Z,30.32
2019-02-21T00:42:16.336Z,30.15
2019-02-21T00:44:09.799Z,30.04
2019-02-21T00:45:09.814Z,29.95
2019-02-21T00:47:03.250Z,30.34
2019-02-21T00:48:03.285Z,30.32
2019-02-21T00:49:56.747Z,30.24
2019-02-21T00:50:56.760Z,30.43
2019-02-21T00:52:50.236Z,30.05
2019-02-21T00:53:50.246Z,30.15
2019-02-21T00:55:43.702Z,30.05
2019-02-21T00:56:43.742Z,30.15
2019-02-21T00:58:37.183Z,30.15
2019-02-21T00:59:37.192Z,30.04
2019-02-21T01:01:30.658Z,30.22
2019-02-21T01:02:30.693Z,30.34
2019-02-21T01:04:24.141Z,30.24
2019-02-21T01:05:24.168Z,30.22
2019-02-21T01:07:18.603Z,30.42
2019-02-21T01:08:18.628Z,30.42
2019-02-21T01:10:12.097Z,30.22
2019-02-21T01:11:12.105Z,30.22
2019-02-21T01:13:05.580Z,30.42
2019-02-21T01:14:05.570Z,30.43
2019-02-21T01:15:59.018Z,30.13
2019-02-21T01:16:59.047Z,30.22
2019-02-21T01:18:52.488Z,30.34
2019-02-21T01:19:52.507Z,30.32
2019-02-21T01:21:45.958Z,30.32
2019-02-21T01:22:45.984Z,30.42
2019-02-21T01:24:39.438Z,30.13
2019-02-21T01:25:39.455Z,30.42
2019-02-21T01:27:32.901Z,30.32
2019-02-21T01:28:32.926Z,30.13
2019-02-21T01:30:26.372Z,30.34
2019-02-21T01:31:26.393Z,30.43
2019-02-21T01:33:19.871Z,30.42
2019-02-21T01:34:19.875Z,30.42
2019-02-21T01:36:13.331Z,30.32
2019-02-21T01:37:13.348Z,30.13
2019-02-21T01:39:06.810Z,30.22
2019-02-21T01:40:06.832Z,30.32
2019-02-21T01:42:00.276Z,30.32
2019-02-21T01:43:00.315Z,30.22
2019-02-21T01:44:53.767Z,30.42
2019-02-21T01:45:53.784Z,30.32
2019-02-21T01:47:47.227Z,30.42
2019-02-21T01:48:47.254Z,30.04
2019-02-21T01:50:40.714Z,30.32
2019-02-21T01:51:40.730Z,30.32
2019-02-21T01:53:34.215Z,29.94
2019-02-21T01:54:34.205Z,29.95
2019-02-21T01:56:27.654Z,30.32
2019-02-21T01:57:27.683Z,30.22
2019-02-21T01:59:21.142Z,30.22
2019-02-21T02:00:21.160Z,30.34
2019-02-21T02:02:14.615Z,30.34
2019-02-21T02:03:14.648Z,30.24
2019-02-21T02:05:08.095Z,30.34
2019-02-21T02:06:08.114Z,30.32
2019-02-21T02:08:01.554Z,30.32
2019-02-21T02:09:01.581Z,30.42
2019-02-21T02:10:55.047Z,30.13
2019-02-21T02:11:55.062Z,30.13
2019-02-21T02:13:48.504Z,30.24
2019-02-21T02:14:48.534Z,30.34
2019-02-21T02:16:41.980Z,30.34
2019-02-21T02:17:41.997Z,30.22
2019-02-21T02:19:35.443Z,30.22
2019-02-21T02:20:35.462Z,30.32
2019-02-21T02:22:28.904Z,30.22
2019-02-21T02:23:28.937Z,30.34
2019-02-21T02:25:22.390Z,30.22
2019-02-21T02:26:22.417Z,30.43
2019-02-21T02:28:16.840Z,30.32
2019-02-21T02:29:16.865Z,30.32
2019-02-21T02:31:21.868Z,30.32
2019-02-21T02:32:10.370Z,30.52
2019-02-21T02:34:03.782Z,30.32
2019-02-21T02:35:03.817Z,30.32
2019-02-21T02:36:57.262Z,30.15
2019-02-21T02:37:57.277Z,30.32
2019-02-21T02:39:50.725Z,30.32
2019-02-21T02:40:50.751Z,30.34
2019-02-21T02:42:44.200Z,30.32
2019-02-21T02:43:44.229Z,30.42
2019-02-21T02:45:37.694Z,30.32
2019-02-21T02:46:37.703Z,30.22
2019-02-21T02:48:31.145Z,30.22
2019-02-21T02:49:31.173Z,30.32
2019-02-21T02:51:24.624Z,30.32
2019-02-21T02:52:24.671Z,30.32
2019-02-21T02:54:18.081Z,30.34
2019-02-21T02:55:18.230Z,30.42
2019-02-21T02:57:11.581Z,30.05
2019-02-21T02:58:11.595Z,30.42
2019-02-21T03:00:06.047Z,30.32
2019-02-21T03:01:06.074Z,30.24
2019-02-21T03:02:59.543Z,30.32
2019-02-21T03:03:59.544Z,30.22
2019-02-21T03:05:53.008Z,30.32
2019-02-21T03:06:53.029Z,30.32
2019-02-21T03:08:46.486Z,30.32
2019-02-21T03:09:46.507Z,30.32
2019-02-21T03:11:39.962Z,30.22
2019-02-21T03:12:39.985Z,30.34
2019-02-21T03:14:33.423Z,30.32
2019-02-21T03:15:33.449Z,30.22
2019-02-21T03:17:26.896Z,30.32
2019-02-21T03:18:26.925Z,30.32
2019-02-21T03:20:20.432Z,30.24
2019-02-21T03:21:20.403Z,30.22
2019-02-21T03:23:13.847Z,30.32
2019-02-21T03:24:13.867Z,30.22
2019-02-21T03:26:07.310Z,30.42
2019-02-21T03:27:07.333Z,30.22
2019-02-21T03:29:00.773Z,30.22
2019-02-21T03:30:00.829Z,30.42
2019-02-21T03:31:56.096Z,30.42
2019-02-21T03:32:54.278Z,30.22
2019-02-21T03:34:47.764Z,30.32
2019-02-21T03:35:47.754Z,30.22
2019-02-21T03:37:41.207Z,30.32
2019-02-21T03:38:41.237Z,30.24
2019-02-21T03:40:34.680Z,30.42
2019-02-21T03:41:34.707Z,30.42
2019-02-21T03:43:28.169Z,30.24
2019-02-21T03:44:28.175Z,30.32
2019-02-21T03:46:21.624Z,30.32
2019-02-21T03:47:21.644Z,30.22
2019-02-21T03:49:15.085Z,30.32
2019-02-21T03:50:15.116Z,30.42
2019-02-21T03:52:08.590Z,30.42
2019-02-21T03:53:08.598Z,30.32
2019-02-21T03:55:02.102Z,30.24
2019-02-21T03:56:02.087Z,30.32
2019-02-21T03:57:55.533Z,30.32
2019-02-21T03:58:55.553Z,30.22
2019-02-21T04:00:49.008Z,30.53
2019-02-21T04:01:49.027Z,30.32
2019-02-21T04:03:42.485Z,30.32
2019-02-21T04:04:42.506Z,30.42
2019-02-21T04:06:35.950Z,30.42
2019-02-21T04:07:35.973Z,30.42
2019-02-21T04:09:29.412Z,30.32
2019-02-21T04:10:29.440Z,30.52
2019-02-21T04:12:22.900Z,30.42
2019-02-21T04:13:22.921Z,30.32
2019-02-21T04:15:16.374Z,30.22
2019-02-21T04:16:16.397Z,30.32
2019-02-21T04:18:09.844Z,30.22
2019-02-21T04:19:09.886Z,30.22
2019-02-21T04:21:04.341Z,30.24
2019-02-21T04:22:04.349Z,30.32
2019-02-21T04:23:57.792Z,30.32
2019-02-21T04:24:57.816Z,30.32
2019-02-21T04:26:51.266Z,30.32
2019-02-21T04:27:51.295Z,30.22
2019-02-21T04:29:44.725Z,30.32
2019-02-21T04:30:44.755Z,30.22
2019-02-21T04:32:38.211Z,30.22
2019-02-21T04:33:38.231Z,30.32
2019-02-21T04:35:31.670Z,30.34
2019-02-21T04:36:31.695Z,30.34
2019-02-21T04:38:25.157Z,30.32
2019-02-21T04:39:25.174Z,30.42
2019-02-21T04:41:18.621Z,30.32
2019-02-21T04:42:18.640Z,30.42
2019-02-21T04:44:13.086Z,30.32
2019-02-21T04:45:13.116Z,30.42
2019-02-21T04:47:06.575Z,30.52
2019-02-21T04:48:06.593Z,30.22
2019-02-21T04:50:00.043Z,30.42
2019-02-21T04:51:00.069Z,30.32
2019-02-21T04:52:53.524Z,30.32
2019-02-21T04:53:53.549Z,30.32
2019-02-21T04:55:47.000Z,30.42
2019-02-21T04:56:47.023Z,30.32
2019-02-21T04:58:40.472Z,30.24
2019-02-21T04:59:40.497Z,30.24
2019-02-21T05:01:33.954Z,30.22
2019-02-21T05:02:33.974Z,30.22
2019-02-21T05:04:27.400Z,30.22
2019-02-21T05:05:27.436Z,30.32
2019-02-21T05:07:20.901Z,30.32
2019-02-21T05:08:20.898Z,30.52
2019-02-21T05:10:15.334Z,30.42
2019-02-21T05:11:15.368Z,30.32
2019-02-21T05:13:08.812Z,30.42
2019-02-21T05:14:08.831Z,30.42
2019-02-21T05:16:02.273Z,30.42
2019-02-21T05:17:02.301Z,30.42
2019-02-21T05:18:55.755Z,30.42
2019-02-21T05:19:55.768Z,30.71
2019-02-21T05:21:49.226Z,30.32
2019-02-21T05:22:49.247Z,30.42
2019-02-21T05:24:42.691Z,30.42
2019-02-21T05:25:42.712Z,30.42
2019-02-21T05:27:36.175Z,30.71
2019-02-21T05:28:36.215Z,30.61
2019-02-21T05:30:29.649Z,30.52
2019-02-21T05:31:29.678Z,30.61
2019-02-21T05:33:23.169Z,30.71
2019-02-21T05:34:23.172Z,30.61
2019-02-21T05:36:16.619Z,30.71
2019-02-21T05:37:16.644Z,30.71
2019-02-21T05:39:10.110Z,30.61
2019-02-21T05:40:10.129Z,30.61
2019-02-21T05:42:03.568Z,30.61
2019-02-21T05:43:03.593Z,30.71
2019-02-21T05:44:59.466Z,30.71
2019-02-21T05:45:57.062Z,30.71
2019-02-21T05:47:50.522Z,30.61
2019-02-21T05:48:50.540Z,30.61
2019-02-21T05:50:43.996Z,30.52
2019-02-21T05:51:44.020Z,30.61
2019-02-21T05:53:37.472Z,30.42
2019-02-21T05:54:37.491Z,30.42
2019-02-21T05:56:30.926Z,30.71
2019-02-21T05:57:30.953Z,30.52
2019-02-21T05:59:24.421Z,30.61
2019-02-21T06:00:24.444Z,30.61
2019-02-21T06:02:17.896Z,30.61
2019-02-21T06:03:17.910Z,30.52
2019-02-21T06:05:11.364Z,30.52
2019-02-21T06:06:11.412Z,30.80
2019-02-21T06:08:04.852Z,30.42
2019-02-21T06:09:04.896Z,30.71
2019-02-21T06:10:59.328Z,30.63
2019-02-21T06:11:59.355Z,30.43
2019-02-21T06:13:53.802Z,30.53
2019-02-21T06:14:53.824Z,30.43
2019-02-21T06:16:47.255Z,30.43
2019-02-21T06:17:47.284Z,30.63
2019-02-21T06:19:40.729Z,30.34
2019-02-21T06:20:40.749Z,30.43
2019-02-21T06:22:34.194Z,30.43
2019-02-21T06:23:34.214Z,30.53
2019-02-21T06:25:30.108Z,30.53
2019-02-21T06:26:27.184Z,30.53
2019-02-21T06:28:20.640Z,30.53
2019-02-21T06:29:22.638Z,30.73
2019-02-21T06:31:14.103Z,30.73
2019-02-21T06:32:14.676Z,30.53
2019-02-21T06:34:07.585Z,30.73
2019-02-21T06:35:07.606Z,30.63
2019-02-21T06:37:02.064Z,30.63
2019-02-21T06:38:02.068Z,30.63
2019-02-21T06:39:55.517Z,30.63
2019-02-21T06:40:55.537Z,30.63
2019-02-21T06:42:48.996Z,30.55
2019-02-21T06:43:49.023Z,30.26
2019-02-21T06:45:42.467Z,30.35
2019-02-21T06:46:42.490Z,30.45
2019-02-21T06:48:36.006Z,30.35
2019-02-21T06:49:35.993Z,30.45
2019-02-21T06:51:29.459Z,30.35
2019-02-21T06:52:29.435Z,30.45
2019-02-21T06:54:22.880Z,30.45
2019-02-21T06:55:22.898Z,30.55
2019-02-21T06:57:17.350Z,30.35
2019-02-21T06:58:17.376Z,30.35
2019-02-21T07:00:10.830Z,30.35
2019-02-21T07:01:10.844Z,30.26
2019-02-21T07:03:15.224Z,30.35
2019-02-21T07:04:04.343Z,30.26
2019-02-21T07:05:57.786Z,30.35
2019-02-21T07:06:57.819Z,30.35
2019-02-21T07:08:51.269Z,30.35
2019-02-21T07:09:51.271Z,30.35
2019-02-21T07:11:46.068Z,30.35
2019-02-21T07:12:44.729Z,30.16
2019-02-21T07:14:39.200Z,30.35
2019-02-21T07:15:39.214Z,30.07
2019-02-21T07:17:33.661Z,30.07
2019-02-21T07:18:33.672Z,29.97
2019-02-21T07:20:27.146Z,29.97
2019-02-21T07:21:27.147Z,30.16
2019-02-21T07:23:20.615Z,30.26
2019-02-21T07:24:20.634Z,30.07
2019-02-21T07:26:14.093Z,29.87
2019-02-21T07:27:14.116Z,29.98
2019-02-21T07:29:08.564Z,29.58
2019-02-21T07:30:19.286Z,29.60
2019-02-21T07:32:02.044Z,29.50
2019-02-21T07:33:02.063Z,29.50
2019-02-21T07:34:55.512Z,29.79
2019-02-21T07:35:55.542Z,29.79
2019-02-21T07:37:49.981Z,29.79
2019-02-21T07:38:50.013Z,29.69
2019-02-21T07:40:43.458Z,29.41
2019-02-21T07:41:43.482Z,29.60
2019-02-21T07:43:36.931Z,29.41
2019-02-21T07:44:36.972Z,29.41
2019-02-21T07:46:32.426Z,29.41
2019-02-21T07:47:31.429Z,29.21
2019-02-21T07:49:25.766Z,29.50
2019-02-21T07:50:24.890Z,29.50
2019-02-21T07:52:18.335Z,29.41
2019-02-21T07:53:18.372Z,29.41
2019-02-21T07:55:12.843Z,29.21
2019-02-21T07:56:12.842Z,29.21
2019-02-21T07:58:06.290Z,29.21
2019-02-21T07:59:06.315Z,29.03
2019-02-21T08:00:59.770Z,29.42
2019-02-21T08:01:59.782Z,29.31
2019-02-21T08:03:53.243Z,29.22
2019-02-21T08:04:53.273Z,29.13
2019-02-21T08:06:46.736Z,29.31
2019-02-21T08:07:46.721Z,29.31
2019-02-21T08:09:41.745Z,29.13
2019-02-21T08:10:41.218Z,29.32
2019-02-21T08:12:35.654Z,29.11
2019-02-21T08:13:35.692Z,28.94
2019-02-21T08:15:29.133Z,28.92
2019-02-21T08:16:29.153Z,28.84
2019-02-21T08:18:22.618Z,28.94
2019-02-21T08:19:22.631Z,28.84
2019-02-21T08:21:16.107Z,29.03
2019-02-21T08:22:16.134Z,29.13
2019-02-21T08:24:09.558Z,29.03
2019-02-21T08:25:09.592Z,29.03
2019-02-21T08:27:03.055Z,28.94
2019-02-21T08:28:03.145Z,28.94
2019-02-21T08:29:56.537Z,29.13
2019-02-21T08:30:58.160Z,28.94
2019-02-21T08:32:49.988Z,28.94
2019-02-21T08:33:57.985Z,28.84
2019-02-21T08:35:43.460Z,28.94
2019-02-21T08:36:43.485Z,29.03
2019-02-21T08:38:36.925Z,29.03
2019-02-21T08:39:36.951Z,28.94
2019-02-21T08:41:30.423Z,28.94
2019-02-21T08:42:30.429Z,28.94
2019-02-21T08:44:23.886Z,28.84
2019-02-21T08:45:23.924Z,28.84
2019-02-21T08:47:17.372Z,28.84
2019-02-21T08:48:17.391Z,28.94
2019-02-21T08:50:11.827Z,28.94
2019-02-21T08:51:11.850Z,28.94
2019-02-21T08:53:06.312Z,28.84
2019-02-21T08:54:06.387Z,28.84
2019-02-21T08:55:59.790Z,28.94
2019-02-21T08:56:59.825Z,28.84
2019-02-21T08:58:52.808Z,28.94
2019-02-21T08:59:52.839Z,28.94
2019-02-21T09:01:46.311Z,29.05
2019-02-21T09:02:46.321Z,28.74
2019-02-21T09:04:39.760Z,28.66
2019-02-21T09:05:39.791Z,28.85
2019-02-21T09:07:34.242Z,28.56
2019-02-21T09:08:37.123Z,28.76
2019-02-21T09:10:27.971Z,28.76
2019-02-21T09:11:27.749Z,28.76
2019-02-21T09:13:23.869Z,28.66
2019-02-21T09:14:22.211Z,29.05
2019-02-21T09:16:17.773Z,28.76
2019-02-21T09:17:16.703Z,28.85
2019-02-21T09:19:10.137Z,28.66
2019-02-21T09:20:10.162Z,28.76
2019-02-21T09:22:03.623Z,28.74
2019-02-21T09:23:03.631Z,28.66
2019-02-21T09:24:57.106Z,28.66
2019-02-21T09:25:57.119Z,28.76
2019-02-21T09:27:51.581Z,28.76
2019-02-21T09:28:51.604Z,28.76
2019-02-21T09:30:45.087Z,28.56
2019-02-21T09:31:45.084Z,28.66
2019-02-21T09:33:39.540Z,28.56
2019-02-21T09:34:39.584Z,28.66
2019-02-21T09:36:34.027Z,28.66
2019-02-21T09:37:34.036Z,28.56
2019-02-21T09:39:27.494Z,28.66
2019-02-21T09:40:28.543Z,28.66
2019-02-21T09:42:21.964Z,28.76
2019-02-21T09:43:21.997Z,28.56
2019-02-21T09:45:16.507Z,28.66
2019-02-21T09:46:16.454Z,28.66
2019-02-21T09:48:11.930Z,28.66
2019-02-21T09:49:09.940Z,28.66
2019-02-21T09:51:03.406Z,28.47
2019-02-21T09:52:03.429Z,28.56
2019-02-21T09:53:56.846Z,28.28
2019-02-21T09:54:56.880Z,28.37
2019-02-21T09:56:53.107Z,28.37
2019-02-21T09:57:50.342Z,28.37
2019-02-21T09:59:44.792Z,28.56
2019-02-21T10:00:44.812Z,28.47
2019-02-21T10:02:38.269Z,28.37
2019-02-21T10:03:38.310Z,28.28
2019-02-21T10:05:31.785Z,28.37
2019-02-21T10:06:31.762Z,28.47
2019-02-21T10:08:25.216Z,28.47
2019-02-21T10:09:25.243Z,28.47
2019-02-21T10:11:18.739Z,28.18
2019-02-21T10:12:18.725Z,28.18
2019-02-21T10:14:12.200Z,28.19
2019-02-21T10:15:12.193Z,28.08
2019-02-21T10:17:05.663Z,28.08
2019-02-21T10:18:05.683Z,28.08
2019-02-21T10:20:00.130Z,28.47
2019-02-21T10:21:00.157Z,28.37
2019-02-21T10:22:53.625Z,28.18
2019-02-21T10:23:53.644Z,28.18
2019-02-21T10:25:47.085Z,28.18
2019-02-21T10:26:47.100Z,28.29
2019-02-21T10:28:40.554Z,28.18
2019-02-21T10:29:40.576Z,28.29
2019-02-21T10:31:34.064Z,28.29
2019-02-21T10:32:34.061Z,28.19
2019-02-21T10:34:27.513Z,28.29
2019-02-21T10:35:27.551Z,28.39
2019-02-21T10:37:20.999Z,28.39
2019-02-21T10:38:21.020Z,28.39
2019-02-21T10:40:15.456Z,28.39
2019-02-21T10:41:15.482Z,28.39
2019-02-21T10:43:08.945Z,28.39
2019-02-21T10:44:08.967Z,28.29
2019-02-21T10:46:02.413Z,28.39
2019-02-21T10:47:02.441Z,28.29
2019-02-21T10:48:55.905Z,28.19
2019-02-21T10:49:55.925Z,28.48
2019-02-21T10:51:49.378Z,28.39
2019-02-21T10:52:49.398Z,28.09
2019-02-21T10:54:42.871Z,28.29
2019-02-21T10:55:42.866Z,28.09
2019-02-21T10:57:37.337Z,28.00
2019-02-21T10:58:37.348Z,28.09
2019-02-21T11:00:31.811Z,28.19
2019-02-21T11:01:31.836Z,28.19
2019-02-21T11:03:25.271Z,28.29
2019-02-21T11:04:25.294Z,28.19
2019-02-21T11:06:18.750Z,27.91
2019-02-21T11:07:18.771Z,27.81
2019-02-21T11:09:13.223Z,27.91
2019-02-21T11:10:13.243Z,28.00
2019-02-21T11:12:06.704Z,27.91
2019-02-21T11:13:06.727Z,28.00
2019-02-21T11:15:00.400Z,28.00
2019-02-21T11:16:00.213Z,27.81
2019-02-21T11:17:53.664Z,27.92
2019-02-21T11:18:53.683Z,27.71
2019-02-21T11:20:47.134Z,27.81
2019-02-21T11:21:47.168Z,28.00
2019-02-21T11:23:40.622Z,27.81
2019-02-21T11:24:40.623Z,28.00
2019-02-21T11:26:34.072Z,27.91
2019-02-21T11:27:34.100Z,28.19
2019-02-21T11:29:28.567Z,28.19
2019-02-21T11:30:28.583Z,28.19
2019-02-21T11:32:22.023Z,28.19
2019-02-21T11:33:22.051Z,28.00
2019-02-21T11:35:16.514Z,27.81
2019-02-21T11:36:16.534Z,27.91
2019-02-21T11:38:10.976Z,27.81
2019-02-21T11:39:11.004Z,28.00
2019-02-21T11:41:05.442Z,28.19
2019-02-21T11:42:05.471Z,27.91
2019-02-21T11:43:59.964Z,28.00
2019-02-21T11:44:59.960Z,27.92
2019-02-21T11:46:53.436Z,28.19
2019-02-21T11:47:53.434Z,28.29
2019-02-21T11:49:46.898Z,28.09
2019-02-21T11:50:46.898Z,27.91
2019-02-21T11:52:40.362Z,28.00
2019-02-21T11:53:40.403Z,27.91
2019-02-21T11:55:33.837Z,27.91
2019-02-21T11:56:33.857Z,27.91
2019-02-21T11:58:27.328Z,27.81
2019-02-21T11:59:27.354Z,27.91
2019-02-21T12:01:20.787Z,27.81
2019-02-21T12:02:20.820Z,27.61
2019-02-21T12:04:15.292Z,27.62
2019-02-21T12:05:17.751Z,27.72
2019-02-21T12:07:08.754Z,27.62
2019-02-21T12:08:08.769Z,27.72
2019-02-21T12:10:02.242Z,27.34
2019-02-21T12:11:02.256Z,27.72
2019-02-21T12:12:55.714Z,27.62
2019-02-21T12:13:55.733Z,27.82
2019-02-21T12:15:49.186Z,27.72
2019-02-21T12:16:49.218Z,27.92
2019-02-21T12:18:42.701Z,27.82
2019-02-21T12:19:42.683Z,28.11
2019-02-21T12:21:36.120Z,28.20
2019-02-21T12:22:36.149Z,28.11
2019-02-21T12:24:29.599Z,28.20
2019-02-21T12:25:29.625Z,28.22
2019-02-21T12:27:23.078Z,28.22
2019-02-21T12:28:23.109Z,28.41
2019-02-21T12:30:16.559Z,28.30
2019-02-21T12:31:16.580Z,28.41
2019-02-21T12:33:10.072Z,28.69
2019-02-21T12:34:10.069Z,28.78
2019-02-21T12:36:03.519Z,28.78
2019-02-21T12:37:03.592Z,28.69
2019-02-21T12:38:56.497Z,29.17
2019-02-21T12:39:56.518Z,28.89
2019-02-21T12:41:49.466Z,28.70
2019-02-21T12:42:49.502Z,28.51
2019-02-21T12:44:42.447Z,28.59
2019-02-21T12:45:42.469Z,28.89
2019-02-21T12:47:35.903Z,28.59
2019-02-21T12:48:35.932Z,29.17
2019-02-21T12:50:28.888Z,28.88
2019-02-21T12:51:28.909Z,28.88
2019-02-21T12:53:22.343Z,28.98
2019-02-21T12:54:24.658Z,28.98
2019-02-21T12:56:15.350Z,28.98
2019-02-21T12:57:15.350Z,28.88
2019-02-21T12:59:08.305Z,28.98
2019-02-21T13:00:08.325Z,28.59
2019-02-21T13:02:01.763Z,29.08
2019-02-21T13:03:01.793Z,28.98
2019-02-21T13:04:54.764Z,28.98
2019-02-21T13:05:54.777Z,29.08
2019-02-21T13:07:48.233Z,28.98
2019-02-21T13:08:48.259Z,29.08
2019-02-21T13:10:41.215Z,29.17
2019-02-21T13:11:41.231Z,29.36
2019-02-21T13:13:34.716Z,29.27
2019-02-21T13:14:34.710Z,29.08
2019-02-21T13:16:27.713Z,28.98
2019-02-21T13:17:27.702Z,28.98
2019-02-21T13:19:20.647Z,29.17
2019-02-21T13:20:20.669Z,29.08
2019-02-21T13:22:13.615Z,29.17
2019-02-21T13:23:13.645Z,29.08
2019-02-21T13:25:06.613Z,29.08
2019-02-21T13:26:06.631Z,29.27
2019-02-21T13:28:00.092Z,29.46
2019-02-21T13:29:00.103Z,29.46
2019-02-21T13:30:53.564Z,28.98
2019-02-21T13:31:53.583Z,28.98
2019-02-21T13:33:47.031Z,28.89
2019-02-21T13:34:47.047Z,28.89
2019-02-21T13:36:40.496Z,28.61
2019-02-21T13:37:40.517Z,28.70
2019-02-21T13:39:33.986Z,28.70
2019-02-21T13:40:33.988Z,28.61
2019-02-21T13:42:28.881Z,28.89
2019-02-21T13:43:27.458Z,28.61
2019-02-21T13:45:20.909Z,28.99
2019-02-21T13:46:20.928Z,28.89
2019-02-21T13:48:14.379Z,28.99
2019-02-21T13:49:14.407Z,28.99
2019-02-21T13:51:07.878Z,28.99
2019-02-21T13:52:07.881Z,28.88
2019-02-21T13:54:01.350Z,28.89
2019-02-21T13:55:01.375Z,28.99
2019-02-21T13:56:54.816Z,28.89
2019-02-21T13:57:54.837Z,29.09
2019-02-21T13:59:47.792Z,29.09
2019-02-21T14:00:47.812Z,29.28
2019-02-21T14:02:41.260Z,29.28
2019-02-21T14:03:41.286Z,29.09
2019-02-21T14:05:35.599Z,29.28
2019-02-21T14:06:35.613Z,29.38
2019-02-21T14:08:30.053Z,29.17
2019-02-21T14:09:30.080Z,29.19
2019-02-21T14:11:24.532Z,29.27
2019-02-21T14:12:26.492Z,29.28
2019-02-21T14:14:18.992Z,29.17
2019-02-21T14:15:19.020Z,29.08
2019-02-21T14:17:14.844Z,29.09
2019-02-21T14:18:12.069Z,28.98
2019-02-21T14:20:05.456Z,29.19
2019-02-21T14:21:05.475Z,29.08
2019-02-21T14:22:59.917Z,29.08
2019-02-21T14:23:59.946Z,29.08
2019-02-21T14:25:54.405Z,29.17
2019-02-21T14:26:54.426Z,29.08
2019-02-21T14:28:48.870Z,28.98
2019-02-21T14:29:48.900Z,29.17
2019-02-21T14:31:42.350Z,28.89
2019-02-21T14:32:42.372Z,28.78
2019-02-21T14:34:35.318Z,28.89
2019-02-21T14:35:35.349Z,28.89
2019-02-21T14:37:28.795Z,28.88
2019-02-21T14:38:28.817Z,29.08
2019-02-21T14:40:22.273Z,29.08
2019-02-21T14:41:22.300Z,29.08
2019-02-21T14:43:17.010Z,29.08
2019-02-21T14:44:15.779Z,29.17
2019-02-21T14:46:10.229Z,29.27
2019-02-21T14:47:10.247Z,29.36
2019-02-21T14:49:03.905Z,29.08
2019-02-21T14:50:04.682Z,29.27
2019-02-21T14:51:57.173Z,29.17
2019-02-21T14:52:57.195Z,29.27
2019-02-21T14:54:50.648Z,29.36
2019-02-21T14:55:50.670Z,29.46
2019-02-21T14:57:45.124Z,29.27
2019-02-21T14:58:45.143Z,29.27
2019-02-21T15:00:38.589Z,29.36
2019-02-21T15:01:38.608Z,29.36
2019-02-21T15:03:32.055Z,29.27
2019-02-21T15:04:32.085Z,29.27
2019-02-21T15:06:27.425Z,29.27
2019-02-21T15:07:26.380Z,29.17
2019-02-21T15:09:19.057Z,29.27
2019-02-21T15:10:19.087Z,29.27
2019-02-21T15:12:12.529Z,29.36
2019-02-21T15:13:12.551Z,29.46
2019-02-21T15:15:05.990Z,29.36
2019-02-21T15:16:06.017Z,29.46
2019-02-21T15:18:07.708Z,29.56
2019-02-21T15:18:59.482Z,29.46
2019-02-21T15:20:52.932Z,29.36
2019-02-21T15:21:52.950Z,29.27
2019-02-21T15:23:47.488Z,29.27
2019-02-21T15:24:47.517Z,29.36
2019-02-21T15:26:40.959Z,29.46
2019-02-21T15:27:40.983Z,29.46
2019-02-21T15:29:34.444Z,29.46
2019-02-21T15:30:34.460Z,29.56
2019-02-21T15:32:27.907Z,29.56
2019-02-21T15:33:27.930Z,29.56
2019-02-21T15:35:21.407Z,29.56
2019-02-21T15:36:21.410Z,29.75
2019-02-21T15:38:19.896Z,29.75
2019-02-21T15:39:14.881Z,29.66
2019-02-21T15:41:08.340Z,29.75
2019-02-21T15:42:08.353Z,29.66
2019-02-21T15:44:01.830Z,30.24
2019-02-21T15:45:01.834Z,29.75
2019-02-21T15:46:55.326Z,30.04
2019-02-21T15:47:55.319Z,29.85
2019-02-21T15:49:48.782Z,29.94
2019-02-21T15:50:48.799Z,30.24
2019-02-21T15:52:41.765Z,30.24
2019-02-21T15:53:41.782Z,30.14
2019-02-21T15:55:35.226Z,30.52
2019-02-21T15:56:35.248Z,30.52
2019-02-21T15:58:28.698Z,30.24
2019-02-21T15:59:28.719Z,30.14
2019-02-21T16:01:22.167Z,30.04
2019-02-21T16:02:22.187Z,30.04
2019-02-21T16:04:15.681Z,30.24
2019-02-21T16:05:15.672Z,30.14
2019-02-21T16:07:09.105Z,30.14
2019-02-21T16:08:09.131Z,30.14
2019-02-21T16:10:02.572Z,30.24
2019-02-21T16:11:04.095Z,30.32
2019-02-21T16:12:56.931Z,30.14
2019-02-21T16:14:03.107Z,30.04
2019-02-21T16:15:49.528Z,30.14
2019-02-21T16:16:49.556Z,30.03
2019-02-21T16:18:43.007Z,30.24
2019-02-21T16:19:43.027Z,30.12
2019-02-21T16:21:36.472Z,30.24
2019-02-21T16:22:36.502Z,30.24
2019-02-21T16:24:29.960Z,30.14
2019-02-21T16:25:29.979Z,30.24
2019-02-21T16:27:23.433Z,30.14
2019-02-21T16:28:23.454Z,30.04
2019-02-21T16:30:16.399Z,30.14
2019-02-21T16:31:16.428Z,30.03
2019-02-21T16:33:09.385Z,30.32
2019-02-21T16:34:09.493Z,30.52
2019-02-21T16:36:02.349Z,30.80
2019-02-21T16:37:02.778Z,30.61
2019-02-21T16:38:55.839Z,30.80
2019-02-21T16:39:55.848Z,30.80
2019-02-21T16:41:49.322Z,30.70
2019-02-21T16:42:49.327Z,30.90
2019-02-21T16:44:42.780Z,30.91
2019-02-21T16:45:46.513Z,30.72
2019-02-21T16:47:36.243Z,30.80
2019-02-21T16:48:36.270Z,30.90
2019-02-21T16:50:30.389Z,30.61
2019-02-21T16:51:29.739Z,30.61
2019-02-21T16:53:23.188Z,30.70
2019-02-21T16:54:23.209Z,30.82
2019-02-21T16:56:16.155Z,30.80
2019-02-21T16:57:16.182Z,30.72
2019-02-21T16:59:09.160Z,30.61
2019-02-21T17:00:09.154Z,30.61
2019-02-21T17:02:02.609Z,30.72
2019-02-21T17:03:02.631Z,30.70
2019-02-21T17:04:56.144Z,30.82
2019-02-21T17:05:56.128Z,30.70
2019-02-21T17:07:49.575Z,30.70
2019-02-21T17:08:49.592Z,30.80
2019-02-21T17:10:43.045Z,30.70
2019-02-21T17:11:43.074Z,30.80
2019-02-21T17:13:36.543Z,30.82
2019-02-21T17:14:36.563Z,30.70
2019-02-21T17:16:30.008Z,30.80
2019-02-21T17:17:30.037Z,30.70
2019-02-21T17:19:23.487Z,31.09
2019-02-21T17:20:23.510Z,31.28
2019-02-21T17:22:16.948Z,31.67
2019-02-21T17:23:22.851Z,31.76
2019-02-21T17:25:09.936Z,31.57
2019-02-21T17:26:09.949Z,31.68
2019-02-21T17:28:02.904Z,31.67
2019-02-21T17:29:02.925Z,31.67
2019-02-21T17:30:57.359Z,31.67
2019-02-21T17:31:57.387Z,31.57
2019-02-21T17:33:50.342Z,31.86
2019-02-21T17:34:50.364Z,31.86
2019-02-21T17:36:43.317Z,31.76
2019-02-21T17:37:43.341Z,31.78
2019-02-21T17:39:36.788Z,31.76
2019-02-21T17:40:36.811Z,31.76
2019-02-21T17:42:29.758Z,31.76
2019-02-21T17:43:29.785Z,31.76
2019-02-21T17:45:23.230Z,31.86
2019-02-21T17:46:23.250Z,31.76
2019-02-21T17:48:16.206Z,31.76
2019-02-21T17:49:16.231Z,31.96
2019-02-21T17:51:09.170Z,32.24
2019-02-21T17:52:09.204Z,31.86
2019-02-21T17:54:02.160Z,32.24
2019-02-21T17:55:02.181Z,32.24
2019-02-21T17:56:55.618Z,31.98
2019-02-21T17:57:55.648Z,31.86
2019-02-21T17:59:49.098Z,31.96
2019-02-21T18:00:49.112Z,31.96
2019-02-21T18:02:42.566Z,31.78
2019-02-21T18:03:42.593Z,31.86
2019-02-21T18:05:36.051Z,31.76
2019-02-21T18:06:36.060Z,31.76
2019-02-21T18:08:29.508Z,31.96
2019-02-21T18:09:29.528Z,31.76
2019-02-21T18:11:23.007Z,31.86
2019-02-21T18:12:23.006Z,31.76
2019-02-21T18:14:16.462Z,31.86
2019-02-21T18:15:16.475Z,31.76
2019-02-21T18:17:09.911Z,31.76
2019-02-21T18:18:09.942Z,31.86
2019-02-21T18:20:02.890Z,31.86
2019-02-21T18:21:02.912Z,31.76
2019-02-21T18:22:56.363Z,31.86
2019-02-21T18:23:56.388Z,31.88
2019-02-21T18:25:49.344Z,31.76
2019-02-21T18:26:49.362Z,31.86
2019-02-21T18:28:42.359Z,31.78
2019-02-21T18:29:43.802Z,31.76
2019-02-21T18:31:35.775Z,31.88
2019-02-21T18:32:35.801Z,31.98
2019-02-21T18:34:29.249Z,31.96
2019-02-21T18:35:29.270Z,32.07
2019-02-21T18:37:22.709Z,31.48